Time;durP1;ratioP1;P1;durP2;ratioP2;P2;SDS_P1;SDS_P2;PMS_P1;PMS_P2;Temp;Humidity;BMP_temperature;BMP_pressure;BME280_temperature;BME280_humidity;BME280_pressure;Samples;Min_cycle;Max_cycle;Signal;HPM_P1;HPM_P2
2023/10/25 00:01:42;;;;;;;0.50;0.50;;;;;;;9.42;95.77;97446.78;5044955;28;20044;-84
2023/10/25 00:04:08;;;;;;;0.60;0.60;;;;;;;9.35;95.77;97444.03;5029248;28;20041;-84
2023/10/25 00:06:33;;;;;;;0.50;0.50;;;;;;;9.39;95.80;97456.50;5047032;28;20154;-85
2023/10/25 00:08:59;;;;;;;0.50;0.50;;;;;;;9.32;95.43;97460.84;5047145;28;20040;-86
2023/10/25 00:11:25;;;;;;;0.50;0.50;;;;;;;9.13;95.55;97448.16;5031172;28;20041;-85
2023/10/25 00:13:51;;;;;;;0.50;0.50;;;;;;;8.83;95.56;97448.63;5027386;28;20305;-85
2023/10/25 00:16:16;;;;;;;0.50;0.50;;;;;;;8.77;96.28;97448.50;5052751;28;20468;-84
2023/10/25 00:18:42;;;;;;;0.50;0.50;;;;;;;8.53;96.19;97449.00;5032328;28;20864;-84
2023/10/25 00:21:07;;;;;;;0.50;0.50;;;;;;;8.44;96.16;97449.78;5052995;28;20604;-84
2023/10/25 00:23:33;;;;;;;0.50;0.50;;;;;;;8.62;96.25;97447.38;5032520;28;20048;-85
2023/10/25 00:25:58;;;;;;;0.55;0.55;;;;;;;8.34;96.28;97451.34;5031290;28;20045;-84
2023/10/25 00:28:24;;;;;;;0.50;0.50;;;;;;;8.27;95.85;97452.09;5028113;28;20094;-85
2023/10/25 00:30:50;;;;;;;0.50;0.50;;;;;;;8.39;96.38;97446.16;5053223;28;20037;-86
2023/10/25 00:33:16;;;;;;;0.60;0.60;;;;;;;8.47;96.20;97452.47;5039476;28;20044;-85
2023/10/25 00:35:42;;;;;;;0.50;0.50;;;;;;;8.47;96.13;97445.38;5005600;28;20053;-87
2023/10/25 00:38:10;;;;;;;0.50;0.50;;;;;;;8.62;96.71;97447.38;5020735;28;20045;-88
2023/10/25 00:40:38;;;;;;;0.50;0.50;;;;;;;8.55;96.55;97444.63;5032475;28;20036;-88
2023/10/25 00:43:19;;;;;;;0.50;0.50;;;;;;;8.52;96.61;97445.47;5045531;28;20040;-88
2023/10/25 00:46:08;;;;;;;0.50;0.50;;;;;;;8.48;96.61;97446.31;5037533;28;20064;-89
2023/10/25 00:48:42;;;;;;;0.60;0.60;;;;;;;8.39;96.28;97438.19;5048776;28;20116;-83
2023/10/25 00:51:10;;;;;;;0.60;0.60;;;;;;;8.37;96.61;97443.44;5044587;28;20027;-85
2023/10/25 00:53:37;;;;;;;;;;;;;;;8.36;96.29;97454.03;5042738;28;20060;-85
2023/10/25 00:56:05;;;;;;;0.50;0.50;;;;;;;8.32;96.33;97449.50;5061738;28;19956;-86
2023/10/25 00:58:32;;;;;;;0.50;0.50;;;;;;;8.32;96.42;97446.84;5053637;28;20111;-86
2023/10/25 01:00:58;;;;;;;0.50;0.50;;;;;;;8.23;96.51;97451.13;5050306;28;20045;-87
2023/10/25 01:03:24;;;;;;;0.60;0.60;;;;;;;8.29;96.53;97452.09;5066165;28;20053;-86
2023/10/25 01:05:51;;;;;;;0.60;0.60;;;;;;;8.28;96.63;97442.34;5042857;28;20037;-85
2023/10/25 01:08:21;;;;;;;0.60;0.60;;;;;;;8.11;96.67;97437.66;5047053;28;20045;-87
2023/10/25 01:10:50;;;;;;;0.57;0.57;;;;;;;7.97;96.41;97437.41;5040560;28;20119;-85
2023/10/25 01:13:17;;;;;;;0.50;0.50;;;;;;;8.00;96.32;97444.53;5043718;28;20037;-85
2023/10/25 01:15:43;;;;;;;0.60;0.60;;;;;;;8.05;96.40;97436.63;5058114;28;20885;-85
2023/10/25 01:18:09;;;;;;;0.60;0.60;;;;;;;8.10;96.23;97425.25;5039608;28;20039;-84
2023/10/25 01:20:35;;;;;;;0.60;0.60;;;;;;;8.02;96.33;97424.22;5050534;28;20498;-86
2023/10/25 01:23:01;;;;;;;0.55;0.55;;;;;;;7.89;96.47;97411.56;5043268;28;20052;-86
2023/10/25 01:25:26;;;;;;;0.50;0.50;;;;;;;7.88;96.54;97415.09;5037716;28;20044;-86
2023/10/25 01:27:52;;;;;;;0.60;0.60;;;;;;;7.85;96.37;97421.22;5042001;28;20479;-87
2023/10/25 01:30:18;;;;;;;0.60;0.60;;;;;;;7.75;96.31;97419.25;5042658;28;20103;-86
2023/10/25 01:32:44;;;;;;;0.60;0.60;;;;;;;7.70;96.44;97418.28;5017084;28;20048;-87
2023/10/25 01:35:12;;;;;;;0.60;0.60;;;;;;;7.76;96.52;97421.09;5033188;28;20475;-87
2023/10/25 01:37:43;;;;;;;0.60;0.60;;;;;;;7.75;96.70;97418.38;5054153;28;20040;-88
2023/10/25 01:40:12;;;;;;;0.60;0.60;;;;;;;7.64;96.79;97407.56;5049017;28;20455;-87
2023/10/25 01:42:38;;;;;;;0.60;0.60;;;;;;;7.59;96.80;97391.53;5016173;28;20021;-87
2023/10/25 01:45:05;;;;;;;0.60;0.60;;;;;;;7.52;96.74;97407.31;5033825;28;20052;-85
2023/10/25 01:47:31;;;;;;;0.60;0.60;;;;;;;7.53;96.37;97407.38;5030581;28;20104;-85
2023/10/25 01:49:59;;;;;;;0.60;0.60;;;;;;;7.50;96.44;97417.00;5033194;28;20045;-86
2023/10/25 01:52:25;;;;;;;0.60;0.60;;;;;;;7.48;96.80;97417.00;5028644;28;20047;-86
2023/10/25 01:54:52;;;;;;;0.70;0.70;;;;;;;7.23;97.00;97425.28;5050898;28;20132;-86
2023/10/25 01:57:18;;;;;;;0.60;0.60;;;;;;;7.00;96.60;97432.78;5034186;28;20474;-88
2023/10/25 01:59:45;;;;;;;0.60;0.60;;;;;;;7.08;97.30;97417.91;5046161;28;20033;-85
2023/10/25 02:02:11;;;;;;;0.60;0.60;;;;;;;7.08;97.23;97421.44;5026739;28;20045;-86
2023/10/25 02:04:37;;;;;;;0.60;0.60;;;;;;;7.06;97.23;97425.84;5029191;28;20057;-85
2023/10/25 02:07:02;;;;;;;0.52;0.52;;;;;;;6.92;97.16;97422.88;5034648;28;20036;-84
2023/10/25 02:09:29;;;;;;;0.60;0.60;;;;;;;6.75;97.21;97434.84;5050591;28;20041;-84
2023/10/25 02:11:54;;;;;;;0.60;0.60;;;;;;;6.90;97.09;97434.31;5038588;28;20484;-86
2023/10/25 02:14:21;;;;;;;0.60;0.60;;;;;;;6.98;97.55;97437.13;5019429;28;20048;-85
2023/10/25 02:16:46;;;;;;;0.60;0.60;;;;;;;6.71;97.70;97433.00;5031588;28;20032;-84
2023/10/25 02:19:13;;;;;;;0.60;0.60;;;;;;;6.36;97.39;97437.44;5031985;28;20025;-86
2023/10/25 02:21:39;;;;;;;0.60;0.60;;;;;;;6.22;97.44;97430.91;5014939;28;20863;-84
2023/10/25 02:24:05;;;;;;;0.65;0.65;;;;;;;6.23;97.63;97428.31;5035270;28;20792;-84
2023/10/25 02:26:31;;;;;;;0.60;0.60;;;;;;;6.51;97.86;97436.91;5037580;28;20082;-83
2023/10/25 02:28:56;;;;;;;0.63;0.63;;;;;;;6.52;97.87;97441.38;5056797;28;20033;-85
2023/10/25 02:31:22;;;;;;;0.70;0.70;;;;;;;6.37;97.65;97432.22;5050838;28;20041;-85
2023/10/25 02:33:48;;;;;;;0.60;0.60;;;;;;;6.43;97.52;97437.66;5041692;28;20068;-85
2023/10/25 02:36:13;;;;;;;0.60;0.60;;;;;;;6.57;97.94;97432.69;5030730;28;20033;-85
2023/10/25 02:38:39;;;;;;;0.60;0.60;;;;;;;6.69;98.14;97427.66;5059628;28;20036;-84
2023/10/25 02:41:04;;;;;;;0.60;0.60;;;;;;;6.54;97.92;97418.47;5045938;28;20467;-85
2023/10/25 02:43:30;;;;;;;0.60;0.60;;;;;;;6.57;97.76;97426.50;5059216;28;20056;-84
2023/10/25 02:46:11;;;;;;;0.70;0.70;;;;;;;6.57;97.81;97415.91;5049367;28;20032;-85
2023/10/25 02:48:36;;;;;;;0.68;0.68;;;;;;;6.77;98.08;97411.03;5031577;28;20108;-85
2023/10/25 02:51:03;;;;;;;0.70;0.70;;;;;;;6.70;97.72;97399.38;5048874;28;20017;-84
2023/10/25 02:53:28;;;;;;;0.60;0.60;;;;;;;6.62;97.93;97403.66;5061661;28;20040;-84
2023/10/25 02:56:07;;;;;;;0.63;0.63;;;;;;;6.49;97.88;97396.25;5040825;28;20053;-85
2023/10/25 02:58:34;;;;;;;0.70;0.70;;;;;;;6.38;97.94;97409.25;5041492;28;20028;-84
2023/10/25 03:01:01;;;;;;;;;;;;;;;6.39;98.06;97400.44;5045154;28;20129;-85
2023/10/25 03:03:32;;;;;;;0.70;0.70;;;;;;;6.50;97.87;97400.69;5043894;28;19963;-85
2023/10/25 03:05:59;;;;;;;0.70;0.70;;;;;;;6.40;97.65;97411.06;5024944;28;20052;-84
2023/10/25 03:08:27;;;;;;;0.70;0.70;;;;;;;6.36;97.70;97405.66;5048582;28;20025;-85
2023/10/25 03:10:53;;;;;;;0.70;0.70;;;;;;;6.23;97.77;97398.25;5046217;28;20045;-85
2023/10/25 03:13:19;;;;;;;0.60;0.60;;;;;;;6.04;97.75;97397.84;5054299;28;20048;-86
2023/10/25 03:15:48;;;;;;;0.60;0.60;;;;;;;6.06;98.15;97403.16;5041162;28;20799;-85
2023/10/25 03:18:16;;;;;;;0.70;0.70;;;;;;;5.85;98.03;97396.44;5025970;28;20060;-85
2023/10/25 03:20:42;;;;;;;;;;;;;;;6.03;98.07;97398.66;5044112;28;20036;-84
2023/10/25 03:23:09;;;;;;;0.70;0.70;;;;;;;6.01;97.78;97392.44;5047567;28;19916;-85
2023/10/25 03:25:35;;;;;;;0.60;0.60;;;;;;;5.87;98.03;97380.59;5070948;28;20041;-84
2023/10/25 03:28:01;;;;;;;0.70;0.70;;;;;;;5.77;97.69;97384.75;5049272;28;20022;-84
2023/10/25 03:30:26;;;;;;;0.70;0.70;;;;;;;5.63;97.94;97373.78;5030401;28;20481;-85
2023/10/25 03:32:52;;;;;;;0.60;0.60;;;;;;;5.61;97.94;97383.47;5043151;28;20036;-83
2023/10/25 03:35:17;;;;;;;0.68;0.68;;;;;;;5.76;97.95;97374.13;5055831;28;20045;-82
2023/10/25 03:37:43;;;;;;;0.70;0.70;;;;;;;5.95;98.10;97378.19;5065185;28;20041;-82
2023/10/25 03:40:10;;;;;;;0.70;0.70;;;;;;;6.00;97.98;97365.94;5051032;28;20020;-84
2023/10/25 03:42:36;;;;;;;0.70;0.70;;;;;;;6.07;98.17;97368.75;5049671;28;20033;-84
2023/10/25 03:45:06;;;;;;;0.70;0.70;;;;;;;6.09;97.84;97367.06;5062473;28;20033;-85
2023/10/25 03:47:37;;;;;;;0.70;0.70;;;;;;;5.89;98.04;97369.19;5061150;28;20017;-86
2023/10/25 03:50:05;;;;;;;0.70;0.70;;;;;;;5.85;97.91;97363.78;5056130;28;20060;-85
2023/10/25 03:52:31;;;;;;;0.70;0.70;;;;;;;5.84;98.20;97364.63;5038708;28;20063;-85
2023/10/25 03:54:59;;;;;;;0.70;0.70;;;;;;;5.86;98.27;97360.28;5059981;28;20446;-84
2023/10/25 03:57:25;;;;;;;;;;;;;;;5.66;97.66;97357.13;5040092;28;20074;-85
2023/10/25 03:59:50;;;;;;;0.70;0.70;;;;;;;5.60;97.68;97356.94;5057517;28;19920;-85
2023/10/25 04:02:16;;;;;;;0.70;0.70;;;;;;;5.46;97.83;97355.69;5054122;28;20051;-85
2023/10/25 04:04:41;;;;;;;0.70;0.70;;;;;;;5.37;98.21;97351.94;5071972;28;20513;-85
2023/10/25 04:07:07;;;;;;;0.70;0.70;;;;;;;5.13;98.04;97352.16;5052294;28;20028;-84
2023/10/25 04:09:32;;;;;;;0.70;0.70;;;;;;;5.09;97.93;97350.28;5052809;28;20031;-83
2023/10/25 04:11:58;;;;;;;0.70;0.70;;;;;;;5.24;98.02;97347.16;5052822;28;20029;-85
2023/10/25 04:14:23;;;;;;;0.70;0.70;;;;;;;4.97;98.23;97335.81;5055237;28;20027;-85
2023/10/25 04:16:49;;;;;;;0.70;0.70;;;;;;;5.03;98.26;97338.63;5072023;28;20033;-84
2023/10/25 04:19:16;;;;;;;0.70;0.70;;;;;;;4.99;98.14;97342.97;5067126;28;20116;-83
2023/10/25 04:21:41;;;;;;;0.70;0.70;;;;;;;4.85;98.29;97337.28;5059874;28;20098;-82
2023/10/25 04:24:07;;;;;;;0.70;0.70;;;;;;;5.12;98.23;97334.50;5046305;28;20045;-83
2023/10/25 04:26:33;;;;;;;0.70;0.70;;;;;;;5.02;98.41;97329.81;5032317;28;20098;-84
2023/10/25 04:28:59;;;;;;;0.77;0.77;;;;;;;5.11;98.14;97331.81;5052422;28;20256;-84
2023/10/25 04:31:26;;;;;;;0.80;0.80;;;;;;;5.24;98.43;97333.06;5003539;28;20037;-84
2023/10/25 04:33:55;;;;;;;0.80;0.80;;;;;;;5.42;98.16;97335.31;5050436;28;20052;-85
2023/10/25 04:36:22;;;;;;;0.70;0.70;;;;;;;5.33;98.31;97339.50;5051269;28;20037;-84
2023/10/25 04:38:51;;;;;;;0.70;0.70;;;;;;;5.31;98.45;97330.59;5016428;28;20033;-86
2023/10/25 04:41:17;;;;;;;0.70;0.70;;;;;;;5.21;98.36;97333.84;5050165;28;20069;-86
2023/10/25 04:43:44;;;;;;;0.70;0.70;;;;;;;5.39;98.37;97326.44;5030138;28;20047;-86
2023/10/25 04:46:15;;;;;;;0.80;0.80;;;;;;;5.47;98.22;97331.03;5051330;28;20028;-86
2023/10/25 04:48:41;;;;;;;0.70;0.70;;;;;;;6.16;99.14;97320.44;5032148;28;20505;-86
2023/10/25 04:51:14;;;;;;;0.80;0.80;;;;;;;6.92;99.81;97294.72;5019671;28;20114;-86
2023/10/25 04:53:44;;;;;;;0.70;0.70;;;;;;;7.57;98.22;97280.91;5051563;28;20048;-85
2023/10/25 04:56:09;;;;;;;;;;;;;;;7.51;97.38;97287.00;5035904;28;20033;-87
2023/10/25 04:58:35;;;;;;;0.70;0.70;;;;;;;7.76;95.90;97272.41;5038619;28;19924;-86
2023/10/25 05:01:13;;;;;;;0.70;0.70;;;;;;;8.16;94.00;97278.34;5036167;28;20044;-87
2023/10/25 05:03:44;;;;;;;0.70;0.70;;;;;;;7.98;93.58;97273.63;5036252;28;20041;-87
2023/10/25 05:06:10;;;;;;;0.70;0.70;;;;;;;7.75;93.93;97264.41;5035771;28;20033;-87
2023/10/25 05:08:36;;;;;;;0.60;0.60;;;;;;;7.77;93.52;97268.88;5021333;28;20033;-87
2023/10/25 05:11:05;;;;;;;0.70;0.70;;;;;;;7.58;94.04;97261.47;5035360;28;20115;-86
2023/10/25 05:13:34;;;;;;;0.70;0.70;;;;;;;7.67;94.25;97264.28;5034692;28;20045;-86
2023/10/25 05:16:01;;;;;;;0.70;0.70;;;;;;;7.27;93.74;97268.88;5033032;28;20081;-85
2023/10/25 05:18:27;;;;;;;0.60;0.60;;;;;;;6.90;94.14;97270.84;5033811;28;20498;-85
2023/10/25 05:20:59;;;;;;;0.70;0.70;;;;;;;7.02;95.40;97271.94;5032106;28;20037;-85
2023/10/25 05:23:47;;;;;;;0.70;0.70;;;;;;;7.07;95.11;97262.31;5031018;28;20048;-86
2023/10/25 05:26:13;;;;;;;0.68;0.68;;;;;;;6.83;94.98;97271.56;5029410;28;20977;-85
2023/10/25 05:28:39;;;;;;;0.60;0.60;;;;;;;6.77;95.86;97267.91;5011425;28;20033;-87
2023/10/25 05:31:05;;;;;;;0.70;0.70;;;;;;;7.16;95.27;97258.06;5048482;28;20047;-86
2023/10/25 05:33:32;;;;;;;0.70;0.70;;;;;;;7.49;94.26;97264.84;5053984;28;20045;-86
2023/10/25 05:35:59;;;;;;;0.70;0.70;;;;;;;7.55;93.32;97253.44;5042695;28;20060;-83
2023/10/25 05:38:25;;;;;;;;;;;;;;;7.25;93.34;97257.34;5059359;28;20037;-86
2023/10/25 05:40:58;;;;;;;0.70;0.70;;;;;;;7.24;93.40;97266.19;5063061;28;19983;-86
2023/10/25 05:43:28;;;;;;;0.77;0.77;;;;;;;7.64;92.63;97251.84;5028433;28;20049;-87
2023/10/25 05:45:56;;;;;;;0.60;0.60;;;;;;;7.83;91.50;97249.50;5062361;28;20049;-84
2023/10/25 05:48:22;;;;;;;0.70;0.70;;;;;;;7.48;91.98;97246.28;5024367;28;20051;-86
2023/10/25 05:50:55;;;;;;;0.70;0.70;;;;;;;7.35;92.78;97243.38;5051176;28;20052;-87
2023/10/25 05:53:21;;;;;;;0.70;0.70;;;;;;;6.89;93.48;97242.53;5048111;28;20047;-84
2023/10/25 05:55:49;;;;;;;0.70;0.70;;;;;;;6.64;93.75;97243.78;5033266;28;20037;-84
2023/10/25 05:58:16;;;;;;;0.70;0.70;;;;;;;6.70;94.03;97250.97;5022208;28;20052;-84
2023/10/25 06:00:48;;;;;;;0.70;0.70;;;;;;;6.77;93.89;97258.19;5059329;28;20253;-86
2023/10/25 06:03:17;;;;;;;0.70;0.70;;;;;;;6.55;93.81;97251.56;5051123;28;20048;-87
2023/10/25 06:05:42;;;;;;;0.70;0.70;;;;;;;6.37;94.18;97252.09;5047726;28;20095;-86
2023/10/25 06:08:09;;;;;;;0.70;0.70;;;;;;;6.41;94.27;97243.31;5017267;28;20039;-85
2023/10/25 06:10:35;;;;;;;0.70;0.70;;;;;;;6.40;94.03;97241.53;5033146;28;20513;-86
2023/10/25 06:13:02;;;;;;;0.70;0.70;;;;;;;6.38;93.83;97237.09;5019366;28;20148;-85
2023/10/25 06:15:27;;;;;;;0.60;0.60;;;;;;;6.34;94.21;97241.41;5021307;28;20037;-86
2023/10/25 06:17:53;;;;;;;0.70;0.70;;;;;;;6.36;94.21;97233.47;5021453;28;20033;-87
2023/10/25 06:20:21;;;;;;;0.70;0.70;;;;;;;6.40;94.45;97233.59;5019000;28;20063;-86
2023/10/25 06:22:47;;;;;;;0.60;0.60;;;;;;;6.49;94.15;97232.00;5031617;28;20041;-87
2023/10/25 06:25:12;;;;;;;0.70;0.70;;;;;;;6.53;94.25;97242.69;5032206;28;20040;-86
2023/10/25 06:27:38;;;;;;;0.70;0.70;;;;;;;6.56;94.31;97236.53;5026365;28;20039;-85
2023/10/25 06:30:04;;;;;;;0.70;0.70;;;;;;;6.59;94.73;97236.63;5049284;28;20032;-83
2023/10/25 06:32:31;;;;;;;0.70;0.70;;;;;;;6.96;94.23;97227.66;5048580;28;20033;-85
2023/10/25 06:34:56;;;;;;;0.60;0.60;;;;;;;7.06;94.03;97234.91;5024035;28;20501;-84
2023/10/25 06:37:22;;;;;;;0.70;0.70;;;;;;;7.27;93.83;97237.03;5030113;28;20049;-85
2023/10/25 06:39:55;;;;;;;0.70;0.70;;;;;;;7.35;94.09;97242.50;5033694;28;20041;-84
2023/10/25 06:42:23;;;;;;;0.60;0.60;;;;;;;7.56;94.05;97234.88;5047612;28;20043;-85
2023/10/25 06:44:49;;;;;;;0.60;0.60;;;;;;;7.51;93.58;97230.38;5047629;28;20115;-87
2023/10/25 06:47:15;;;;;;;0.60;0.60;;;;;;;8.08;91.86;97226.84;5032829;28;20486;-85
2023/10/25 06:49:41;;;;;;;0.60;0.60;;;;;;;8.15;90.84;97223.44;5031205;28;20094;-84
2023/10/25 06:52:07;;;;;;;0.70;0.70;;;;;;;8.48;89.61;97218.63;5029588;28;20036;-88
2023/10/25 06:54:33;;;;;;;0.60;0.60;;;;;;;8.64;89.73;97214.38;5014289;28;20076;-84
2023/10/25 06:57:00;;;;;;;0.60;0.60;;;;;;;8.74;89.50;97208.28;5022275;28;20056;-85
2023/10/25 06:59:26;;;;;;;0.60;0.60;;;;;;;8.67;89.96;97201.13;5060605;28;20052;-85
2023/10/25 07:01:59;;;;;;;0.63;0.63;;;;;;;8.65;89.95;97189.56;5066239;28;20029;-84
2023/10/25 07:04:27;;;;;;;0.65;0.65;;;;;;;8.76;89.24;97173.72;5068859;28;20064;-85
2023/10/25 07:06:54;;;;;;;0.60;0.60;;;;;;;8.87;88.57;97181.84;5072537;28;20021;-84
2023/10/25 07:09:20;;;;;;;;;;;;;;;9.09;87.68;97182.94;5054594;28;20045;-87
2023/10/25 07:11:47;;;;;;;0.70;0.70;;;;;;;9.15;88.00;97178.59;5052458;28;19911;-85
2023/10/25 07:14:12;;;;;;;0.70;0.70;;;;;;;9.38;87.50;97176.13;5061773;28;20044;-85
2023/10/25 07:16:39;;;;;;;0.60;0.60;;;;;;;9.51;86.26;97180.66;5031264;28;20528;-85
2023/10/25 07:19:05;;;;;;;;;;;;;;;9.74;84.71;97158.66;5030716;28;20044;-86
2023/10/25 07:21:31;;;;;;;0.70;0.70;;;;;;;9.85;84.05;97151.63;5032943;28;19931;-85
2023/10/25 07:23:56;;;;;;;0.70;0.70;;;;;;;9.99;84.39;97136.63;5049055;28;20470;-85
2023/10/25 07:26:24;;;;;;;0.60;0.60;;;;;;;10.35;84.28;97132.41;5030280;28;20059;-85
2023/10/25 07:28:49;;;;;;;0.60;0.60;;;;;;;10.71;83.17;97128.97;5012363;28;20574;-86
2023/10/25 07:31:15;;;;;;;0.60;0.60;;;;;;;11.04;80.52;97133.47;5015368;28;20053;-86
2023/10/25 07:33:41;;;;;;;0.60;0.60;;;;;;;11.42;81.44;97129.94;5014969;28;20040;-86
2023/10/25 07:36:07;;;;;;;0.60;0.60;;;;;;;11.50;79.22;97133.53;5015029;28;20033;-86
2023/10/25 07:38:33;;;;;;;0.50;0.50;;;;;;;11.47;78.45;97127.28;5049747;28;20414;-85
2023/10/25 07:40:58;;;;;;;0.50;0.50;;;;;;;11.87;78.60;97128.16;5002392;28;20045;-85
2023/10/25 07:43:24;;;;;;;0.52;0.52;;;;;;;11.63;77.71;97133.50;5012614;28;20047;-85
2023/10/25 07:45:50;;;;;;;0.40;0.40;;;;;;;11.88;77.47;97124.63;5030314;28;20128;-85
2023/10/25 07:48:17;;;;;;;0.40;0.40;;;;;;;12.43;76.80;97123.53;5048516;28;20023;-86
2023/10/25 07:50:43;;;;;;;0.40;0.40;;;;;;;12.58;73.97;97107.41;5048993;28;20029;-86
2023/10/25 07:53:13;;;;;;;0.40;0.40;;;;;;;12.03;75.15;97111.22;5030544;28;20041;-86
2023/10/25 07:55:44;;;;;;;0.50;0.50;;;;;;;12.39;74.38;97111.06;5030327;28;20049;-85
2023/10/25 07:58:12;;;;;;;0.40;0.40;;;;;;;12.32;73.74;97104.88;5050816;28;20076;-85
2023/10/25 08:00:38;;;;;;;0.50;0.50;;;;;;;12.46;74.04;97095.00;5030535;28;20457;-86
2023/10/25 08:03:03;;;;;;;0.40;0.40;;;;;;;13.02;71.76;97100.91;5030357;28;20090;-86
2023/10/25 08:05:30;;;;;;;0.40;0.40;;;;;;;13.45;70.05;97092.59;5012252;28;20049;-86
2023/10/25 08:07:58;;;;;;;0.30;0.30;;;;;;;13.30;69.91;97094.50;5048513;28;20063;-86
2023/10/25 08:10:25;;;;;;;0.40;0.40;;;;;;;12.71;72.96;97101.13;5013266;28;20037;-86
2023/10/25 08:12:50;;;;;;;0.30;0.30;;;;;;;11.92;74.30;97104.09;5029973;28;20387;-84
2023/10/25 08:15:20;;;;;;;0.30;0.30;;;;;;;11.45;76.58;97116.63;5028837;28;20048;-86
2023/10/25 08:17:47;;;;;;;0.40;0.40;;;;;;;11.19;77.82;97115.69;5012187;28;20401;-85
2023/10/25 08:20:12;;;;;;;0.40;0.40;;;;;;;11.01;78.63;97114.78;5047179;28;20151;-86
2023/10/25 08:22:38;;;;;;;0.40;0.40;;;;;;;10.88;80.19;97106.78;5030598;28;20093;-86
2023/10/25 08:25:08;;;;;;;0.40;0.40;;;;;;;11.81;77.13;97106.75;5030923;28;20037;-85
2023/10/25 08:27:43;;;;;;;0.50;0.50;;;;;;;13.70;72.14;97087.88;5014515;28;20048;-86
2023/10/25 08:30:10;;;;;;;0.40;0.40;;;;;;;14.89;68.32;97087.38;5049587;28;20037;-86
2023/10/25 08:32:36;;;;;;;0.40;0.40;;;;;;;16.13;63.50;97079.94;5030116;28;20688;-87
2023/10/25 08:35:03;;;;;;;0.30;0.30;;;;;;;16.54;60.28;97080.06;5034701;28;20574;-86
2023/10/25 08:37:29;;;;;;;0.30;0.30;;;;;;;17.13;60.42;97078.75;5037642;28;20044;-86
2023/10/25 08:39:55;;;;;;;0.20;0.20;;;;;;;16.74;59.03;97080.53;5039852;28;20033;-86
2023/10/25 08:42:21;;;;;;;0.30;0.30;;;;;;;16.79;58.69;97088.53;5017137;28;20037;-87
2023/10/25 08:44:53;;;;;;;;;;;;;;;15.61;60.49;97088.94;5033999;28;20102;-85
2023/10/25 08:47:20;;;;;;;0.10;0.10;;;;;;;14.18;65.61;97081.16;5034825;28;19913;-87
2023/10/25 08:49:45;;;;;;;0.20;0.20;;;;;;;13.66;68.40;97084.38;5048718;28;20045;-86
2023/10/25 08:52:11;;;;;;;0.20;0.20;;;;;;;12.72;70.97;97077.91;5052193;28;20072;-86
2023/10/25 08:54:39;;;;;;;0.30;0.30;;;;;;;12.93;72.68;97080.44;5017315;28;20048;-86
2023/10/25 08:57:05;;;;;;;0.30;0.30;;;;;;;12.94;71.80;97076.00;5052239;28;20047;-85
2023/10/25 08:59:31;;;;;;;0.30;0.30;;;;;;;12.70;72.55;97069.03;5051021;28;20041;-86
2023/10/25 09:01:56;;;;;;;0.30;0.30;;;;;;;12.80;73.11;97070.75;5052019;28;20111;-86
2023/10/25 09:04:22;;;;;;;0.30;0.30;;;;;;;12.29;74.27;97062.09;5052293;28;20387;-85
2023/10/25 09:06:49;;;;;;;0.32;0.32;;;;;;;12.92;71.92;97051.91;5051902;28;20035;-84
2023/10/25 09:09:14;;;;;;;0.30;0.30;;;;;;;13.18;72.40;97050.84;5018158;28;20021;-85
2023/10/25 09:11:42;;;;;;;0.40;0.40;;;;;;;12.73;73.32;97053.81;5033993;28;20478;-86
2023/10/25 09:14:10;;;;;;;0.40;0.40;;;;;;;12.94;73.36;97042.09;5049968;28;20159;-85
2023/10/25 09:16:37;;;;;;;;;;;;;;;13.01;72.94;97030.41;5049200;28;20036;-87
2023/10/25 09:19:04;;;;;;;0.40;0.40;;;;;;;12.80;73.63;97034.16;5059169;28;19923;-86
2023/10/25 09:21:31;;;;;;;0.30;0.30;;;;;;;12.79;73.47;97026.13;5053481;28;20474;-87
2023/10/25 09:24:06;;;;;;;0.30;0.30;;;;;;;12.84;73.83;97019.88;5043156;28;20024;-87
2023/10/25 09:26:35;;;;;;;0.30;0.30;;;;;;;13.12;73.90;97019.63;5040671;28;20045;-87
2023/10/25 09:29:01;;;;;;;0.30;0.30;;;;;;;12.86;74.44;97018.97;5034819;28;20141;-87
2023/10/25 09:31:31;;;;;;;0.30;0.30;;;;;;;12.54;74.37;97018.25;5035211;28;20048;-87
2023/10/25 09:34:10;;;;;;;0.30;0.30;;;;;;;12.46;75.13;97011.19;5035743;28;20048;-87
2023/10/25 09:36:42;;;;;;;0.30;0.30;;;;;;;12.28;75.66;97017.53;5053417;28;20048;-86
2023/10/25 09:39:12;;;;;;;0.40;0.40;;;;;;;12.34;77.31;97012.16;5022645;28;20055;-87
2023/10/25 09:41:43;;;;;;;0.30;0.30;;;;;;;12.60;75.98;97022.72;5036795;28;20068;-87
2023/10/25 09:44:35;;;;;;;;;;;;;;;12.59;78.21;97008.41;5052075;28;20076;-87
2023/10/25 09:47:10;;;;;;;0.40;0.40;;;;;;;12.52;78.47;97012.03;5037076;28;19913;-86
2023/10/25 09:49:52;;;;;;;0.40;0.40;;;;;;;12.33;78.73;97007.69;5018335;28;20047;-87
2023/10/25 09:52:19;;;;;;;0.40;0.40;;;;;;;12.23;79.20;97006.88;5061799;28;20058;-87
2023/10/25 09:54:58;;;;;;;0.50;0.50;;;;;;;12.23;80.23;97003.31;5040240;28;20049;-87
2023/10/25 09:57:29;;;;;;;0.40;0.40;;;;;;;12.14;79.69;97003.34;5043240;28;20045;-88
2023/10/25 09:59:56;;;;;;;0.40;0.40;;;;;;;12.02;80.35;97004.28;5062198;28;20096;-89
2023/10/25 10:02:40;;;;;;;0.40;0.40;;;;;;;11.98;81.04;97013.22;5048217;28;20163;-87
2023/10/25 10:05:21;;;;;;;0.40;0.40;;;;;;;11.88;80.54;97016.81;5047973;28;20021;-86
2023/10/25 10:07:54;;;;;;;0.40;0.40;;;;;;;11.69;80.76;97013.25;5050049;28;20048;-86
2023/10/25 10:10:49;;;;;;;0.40;0.40;;;;;;;11.58;84.05;97013.31;5072349;28;20025;-86
2023/10/25 10:13:16;;;;;;;0.40;0.40;;;;;;;11.53;85.38;97007.09;5043044;28;20044;-86
2023/10/25 10:16:11;;;;;;;0.50;0.50;;;;;;;11.51;85.22;96995.53;5042192;28;20049;-85
2023/10/25 10:18:47;;;;;;;0.40;0.40;;;;;;;11.46;84.59;96991.97;5052777;28;20097;-86
2023/10/25 10:21:14;;;;;;;0.40;0.40;;;;;;;11.52;85.49;96982.16;5029607;28;20037;-87
2023/10/25 10:23:46;;;;;;;0.57;0.57;;;;;;;11.42;84.40;96990.22;5032538;28;20043;-86
2023/10/25 10:26:12;;;;;;;0.50;0.50;;;;;;;11.40;83.96;96979.53;5014314;28;20064;-88
2023/10/25 10:28:43;;;;;;;0.50;0.50;;;;;;;11.38;84.81;96969.75;5048136;28;20044;-87
2023/10/25 10:31:13;;;;;;;0.40;0.40;;;;;;;11.38;85.21;96970.63;5016349;28;20126;-87
2023/10/25 10:33:49;;;;;;;0.50;0.50;;;;;;;11.48;85.92;96958.13;5044506;28;20048;-88
2023/10/25 10:36:27;;;;;;;0.50;0.50;;;;;;;11.56;83.77;96948.31;5026789;28;20528;-87
2023/10/25 10:39:12;;;;;;;0.50;0.50;;;;;;;11.57;83.88;96939.41;5027866;28;20029;-86
2023/10/25 10:41:47;;;;;;;0.50;0.50;;;;;;;11.60;83.41;96934.06;5050388;28;20033;-88
2023/10/25 10:44:13;;;;;;;0.50;0.50;;;;;;;11.64;84.65;96924.25;5073291;28;20044;-86
2023/10/25 10:46:55;;;;;;;0.45;0.45;;;;;;;11.68;83.61;96920.66;5040859;28;20031;-86
2023/10/25 10:49:28;;;;;;;0.50;0.50;;;;;;;11.68;83.42;96910.88;5056835;28;20098;-86
2023/10/25 10:51:55;;;;;;;0.50;0.50;;;;;;;11.73;83.54;96901.03;5056530;28;20025;-86
2023/10/25 10:54:26;;;;;;;0.40;0.40;;;;;;;11.79;83.77;96902.81;5058116;28;20079;-88
2023/10/25 10:56:54;;;;;;;0.50;0.50;;;;;;;11.89;82.20;96887.66;5036024;28;20094;-86
2023/10/25 10:59:28;;;;;;;0.52;0.52;;;;;;;11.91;82.59;96883.19;5048653;28;20064;-87
2023/10/25 11:01:57;;;;;;;0.50;0.50;;;;;;;12.02;82.56;96879.53;5032519;28;20052;-87
2023/10/25 11:04:23;;;;;;;0.50;0.50;;;;;;;12.04;82.48;96876.88;5054673;28;20029;-87
2023/10/25 11:06:48;;;;;;;0.50;0.50;;;;;;;12.13;81.99;96862.56;5003423;28;20063;-87
2023/10/25 11:09:15;;;;;;;0.50;0.50;;;;;;;12.24;80.05;96858.00;5003692;28;20059;-88
2023/10/25 11:11:42;;;;;;;0.50;0.50;;;;;;;12.53;80.04;96855.09;5035839;28;20861;-87
2023/10/25 11:14:11;;;;;;;0.40;0.40;;;;;;;12.55;79.50;96839.91;5034081;28;20036;-86
2023/10/25 11:16:37;;;;;;;0.50;0.50;;;;;;;12.34;80.06;96841.00;5018576;28;20045;-87
2023/10/25 11:19:09;;;;;;;0.40;0.40;;;;;;;12.34;79.70;96846.34;5039275;28;20078;-86
2023/10/25 11:21:35;;;;;;;0.40;0.40;;;;;;;12.37;80.57;96843.66;5052046;28;20036;-86
2023/10/25 11:24:06;;;;;;;0.40;0.40;;;;;;;12.51;81.39;96827.50;5054504;28;20032;-86
2023/10/25 11:26:37;;;;;;;0.40;0.40;;;;;;;12.57;81.10;96830.97;5041864;28;20036;-87
2023/10/25 11:29:03;;;;;;;0.40;0.40;;;;;;;12.73;80.89;96821.00;5051654;28;20078;-87
2023/10/25 11:31:32;;;;;;;0.40;0.40;;;;;;;12.76;79.78;96817.44;5037687;28;20041;-86
2023/10/25 11:33:58;;;;;;;;;;;;;;;12.85;81.19;96798.59;5032807;28;20464;-87
2023/10/25 11:36:31;;;;;;;0.40;0.40;;;;;;;12.84;77.42;96797.72;5060770;28;19944;-87
2023/10/25 11:39:07;;;;;;;0.30;0.30;;;;;;;12.85;77.70;96790.56;5036263;28;20052;-87
2023/10/25 11:41:33;;;;;;;0.40;0.40;;;;;;;13.02;78.35;96787.69;5044238;28;20041;-87
2023/10/25 11:44:02;;;;;;;0.40;0.40;;;;;;;13.06;76.47;96776.94;5027262;28;20044;-86
2023/10/25 11:46:36;;;;;;;0.40;0.40;;;;;;;13.22;76.29;96766.06;5053419;28;20037;-86